Time;durP1;ratioP1;P1;durP2;ratioP2;P2;SDS_P1;SDS_P2;PMS_P1;PMS_P2;Temp;Humidity;BMP_temperature;BMP_pressure;BME280_temperature;BME280_humidity;BME280_pressure;Samples;Min_cycle;Max_cycle;Signal;HPM_P1;HPM_P2
2022/08/17 00:00:27;;;;;;;5.85;4.90;;;20.50;90.70;;;;;;5051911;28;20363;-61
2022/08/17 00:02:57;;;;;;;6.55;4.80;;;20.30;91.10;;;;;;5051550;28;20542;-61
2022/08/17 00:05:23;;;;;;;6.68;4.63;;;20.20;91.60;;;;;;5052352;28;20188;-61
2022/08/17 00:07:49;;;;;;;4.65;4.05;;;20.10;92.10;;;;;;5050712;28;20190;-61
2022/08/17 00:10:14;;;;;;;6.07;3.88;;;20.10;92.70;;;;;;5052285;28;20566;-61
2022/08/17 00:12:41;;;;;;;4.75;4.22;;;20.00;93.10;;;;;;5051950;28;20311;-61
2022/08/17 00:15:08;;;;;;;8.27;4.53;;;20.00;93.30;;;;;;5044215;28;20217;-61
2022/08/17 00:17:33;;;;;;;6.93;4.57;;;20.00;93.50;;;;;;5040651;28;20196;-61
2022/08/17 00:19:59;;;;;;;8.68;5.00;;;20.00;93.80;;;;;;5050590;28;20525;-61
2022/08/17 00:22:25;;;;;;;6.13;4.22;;;20.00;93.90;;;;;;5051434;28;20193;-61
2022/08/17 00:24:50;;;;;;;10.30;6.22;;;19.90;94.00;;;;;;5051561;28;20181;-61
2022/08/17 00:27:17;;;;;;;5.40;4.13;;;20.00;94.00;;;;;;5050266;28;20566;-61
2022/08/17 00:29:44;;;;;;;21.80;13.95;;;20.00;94.00;;;;;;5051193;28;20264;-61
2022/08/17 00:32:11;;;;;;;12.80;8.05;;;20.00;94.10;;;;;;5039736;28;20181;-61
2022/08/17 00:34:36;;;;;;;6.28;4.40;;;20.00;94.20;;;;;;5041805;28;20583;-61
2022/08/17 00:37:02;;;;;;;4.22;3.83;;;20.00;94.20;;;;;;5051332;28;20177;-61
2022/08/17 00:39:28;;;;;;;6.30;4.25;;;20.00;94.60;;;;;;5049664;28;20181;-61
2022/08/17 00:41:53;;;;;;;7.47;3.67;;;19.90;94.80;;;;;;5051429;28;20182;-61
2022/08/17 00:44:19;;;;;;;4.18;3.83;;;19.80;95.20;;;;;;5050945;28;20659;-61
2022/08/17 00:46:46;;;;;;;4.25;3.85;;;19.70;95.50;;;;;;5050835;28;20221;-61
2022/08/17 00:49:14;;;;;;;4.95;3.90;;;19.60;95.70;;;;;;5050350;28;20204;-61
2022/08/17 00:51:59;;;;;;;5.63;3.80;;;19.60;95.90;;;;;;5051197;28;20509;-61
2022/08/17 00:54:28;;;;;;;5.68;3.88;;;19.60;96.00;;;;;;5051316;28;20226;-61
2022/08/17 00:56:58;;;;;;;6.15;4.28;;;19.60;95.90;;;;;;5050793;28;20212;-61
2022/08/17 00:59:27;;;;;;;5.28;4.10;;;19.70;95.80;;;;;;5051347;28;20260;-61
2022/08/17 01:01:52;;;;;;;4.10;3.70;;;19.70;95.90;;;;;;5050878;28;20225;-61
2022/08/17 01:04:21;;;;;;;4.78;4.07;;;19.70;96.00;;;;;;5050965;28;20235;-61
2022/08/17 01:06:48;;;;;;;26.35;18.60;;;19.70;96.00;;;;;;5050887;28;20209;-61
2022/08/17 01:09:16;;;;;;;6.30;4.70;;;19.70;96.00;;;;;;5056355;28;20185;-60
2022/08/17 01:11:43;;;;;;;7.13;5.65;;;19.70;96.00;;;;;;5057573;28;20242;-61
2022/08/17 01:14:09;;;;;;;11.77;8.98;;;19.70;95.90;;;;;;5057383;28;20193;-60
2022/08/17 01:16:36;;;;;;;8.43;5.45;;;19.70;95.90;;;;;;5057678;28;20188;-61
2022/08/17 01:19:08;;;;;;;8.93;5.50;;;19.70;96.00;;;;;;5057062;28;20197;-61
2022/08/17 01:21:48;;;;;;;6.20;3.97;;;19.60;96.10;;;;;;5057234;28;20652;-61
2022/08/17 01:24:14;;;;;;;4.68;3.72;;;19.60;96.20;;;;;;5057377;28;20180;-61
2022/08/17 01:26:42;;;;;;;8.65;3.97;;;19.50;96.50;;;;;;5057116;28;20575;-61
2022/08/17 01:29:07;;;;;;;4.20;3.80;;;19.40;96.80;;;;;;5056976;28;20185;-61
2022/08/17 01:31:36;;;;;;;4.93;4.40;;;19.30;97.20;;;;;;5057360;28;20239;-61
2022/08/17 01:34:07;;;;;;;7.03;4.00;;;19.30;97.40;;;;;;5056835;28;20188;-60
2022/08/17 01:36:33;;;;;;;7.85;5.95;;;19.10;97.70;;;;;;5057573;28;20250;-61
2022/08/17 01:38:59;;;;;;;6.63;4.40;;;19.00;97.90;;;;;;5050646;28;20556;-60
2022/08/17 01:41:25;;;;;;;7.32;5.38;;;18.90;98.10;;;;;;5057488;28;20231;-61
2022/08/17 01:43:56;;;;;;;6.03;4.45;;;18.90;98.40;;;;;;5056907;28;20181;-60
2022/08/17 01:46:25;;;;;;;5.25;4.40;;;18.90;98.60;;;;;;5056513;28;20220;-60
2022/08/17 01:48:51;;;;;;;5.90;4.80;;;18.80;98.90;;;;;;5056524;28;20666;-61
2022/08/17 01:51:18;;;;;;;13.95;9.45;;;18.80;99.10;;;;;;5056107;28;20181;-61
2022/08/17 01:53:50;;;;;;;7.43;5.22;;;18.80;99.20;;;;;;5057323;28;20173;-61
2022/08/17 01:56:20;;;;;;;14.90;10.57;;;18.70;99.20;;;;;;5057193;28;20508;-60
2022/08/17 01:58:45;;;;;;;6.35;4.85;;;18.80;99.30;;;;;;5057211;28;20609;-60
2022/08/17 02:01:13;;;;;;;6.03;4.10;;;18.80;99.30;;;;;;5057118;28;20225;-60
2022/08/17 02:03:39;;;;;;;8.35;4.60;;;18.80;99.30;;;;;;5057036;28;20696;-60
2022/08/17 02:06:06;;;;;;;4.18;3.80;;;18.80;99.50;;;;;;5057086;28;20217;-60
2022/08/17 02:08:34;;;;;;;6.72;4.40;;;18.80;99.50;;;;;;5057258;28;20181;-60
2022/08/17 02:11:01;;;;;;;5.13;4.03;;;18.80;99.70;;;;;;5057076;28;20181;-60
2022/08/17 02:13:28;;;;;;;4.95;4.22;;;18.80;99.80;;;;;;5056752;28;20505;-60
2022/08/17 02:15:57;;;;;;;6.35;4.80;;;18.80;99.80;;;;;;5056964;28;20177;-60
2022/08/17 02:18:24;;;;;;;6.38;4.13;;;18.80;99.90;;;;;;5054717;28;20223;-61
2022/08/17 02:20:50;;;;;;;7.88;4.40;;;18.80;99.90;;;;;;5052679;28;20178;-61
2022/08/17 02:23:16;;;;;;;5.07;4.00;;;18.80;99.90;;;;;;5053077;28;20541;-60
2022/08/17 02:25:46;;;;;;;7.78;5.13;;;18.80;99.90;;;;;;5052797;28;20216;-60
2022/08/17 02:28:12;;;;;;;4.70;4.30;;;18.70;99.90;;;;;;5053359;28;20177;-60
2022/08/17 02:30:38;;;;;;;5.32;4.50;;;18.70;99.90;;;;;;5053627;28;20192;-60
2022/08/17 02:33:05;;;;;;;6.60;4.20;;;18.70;99.90;;;;;;5053058;28;20216;-60
2022/08/17 02:35:31;;;;;;;4.78;4.32;;;18.60;99.90;;;;;;5053329;28;20178;-60
2022/08/17 02:37:57;;;;;;;5.47;4.47;;;18.60;99.90;;;;;;5051640;28;20190;-61
2022/08/17 02:40:23;;;;;;;6.15;4.75;;;18.60;99.90;;;;;;5052716;28;20193;-61
2022/08/17 02:42:48;;;;;;;4.68;4.15;;;18.50;99.90;;;;;;5052822;28;20181;-60
2022/08/17 02:45:21;;;;;;;5.07;4.40;;;18.50;99.90;;;;;;5053418;28;20189;-60
2022/08/17 02:47:47;;;;;;;6.15;4.22;;;18.40;99.90;;;;;;5053157;28;20268;-60
2022/08/17 02:50:15;;;;;;;4.97;4.10;;;18.50;99.90;;;;;;5052415;28;20265;-60
2022/08/17 02:52:42;;;;;;;6.05;4.78;;;18.50;99.90;;;;;;5053220;28;20266;-61
2022/08/17 02:55:15;;;;;;;6.55;4.47;;;18.50;99.90;;;;;;5052819;28;20193;-60
2022/08/17 02:57:41;;;;;;;4.68;4.20;;;18.50;99.90;;;;;;5053270;28;20264;-60
2022/08/17 03:00:11;;;;;;;5.32;4.65;;;18.50;99.90;;;;;;5052667;28;20197;-60
2022/08/17 03:02:41;;;;;;;5.20;4.70;;;18.50;99.90;;;;;;5052803;28;20668;-60
2022/08/17 03:05:09;;;;;;;7.75;5.55;;;18.50;99.90;;;;;;5050269;28;20197;-60
2022/08/17 03:07:36;;;;;;;8.43;4.72;;;18.50;99.90;;;;;;5052774;28;20228;-60
2022/08/17 03:10:02;;;;;;;8.60;5.25;;;18.50;99.90;;;;;;5052532;28;20176;-60
2022/08/17 03:12:37;;;;;;;5.43;4.57;;;18.50;99.90;;;;;;5052391;28;20178;-60
2022/08/17 03:15:15;;;;;;;5.25;4.57;;;18.50;99.90;;;;;;5052677;28;20177;-60
2022/08/17 03:17:41;;;;;;;5.10;4.60;;;18.60;99.90;;;;;;5052446;28;20184;-60
2022/08/17 03:20:07;;;;;;;6.68;4.50;;;18.60;99.90;;;;;;5052200;28;20181;-60
2022/08/17 03:22:40;;;;;;;6.93;4.82;;;18.60;99.90;;;;;;5052715;28;20181;-60
2022/08/17 03:25:08;;;;;;;4.95;4.32;;;18.60;99.90;;;;;;5039798;28;20188;-60
2022/08/17 03:27:33;;;;;;;5.03;4.32;;;18.60;99.90;;;;;;5052452;28;20718;-60
2022/08/17 03:29:59;;;;;;;5.43;4.30;;;18.60;99.90;;;;;;5051978;28;20181;-60
2022/08/17 03:32:25;;;;;;;5.38;4.28;;;18.60;99.90;;;;;;5051302;28;20193;-60
2022/08/17 03:34:50;;;;;;;5.40;4.90;;;18.50;99.90;;;;;;5052188;28;20178;-60
2022/08/17 03:37:16;;;;;;;5.00;4.10;;;18.50;99.90;;;;;;5052202;28;20177;-60
2022/08/17 03:39:41;;;;;;;5.57;4.32;;;18.50;99.90;;;;;;5040937;28;20667;-60
2022/08/17 03:42:15;;;;;;;5.40;4.18;;;18.50;99.90;;;;;;5051928;28;20268;-60
2022/08/17 03:44:40;;;;;;;5.20;4.65;;;18.40;99.90;;;;;;5052204;28;20327;-60
2022/08/17 03:58:03;;;;;;;7.72;5.15;;;18.40;99.90;;;;;;5052154;28;20239;-60
2022/08/17 04:00:29;;;;;;;6.25;5.55;;;18.30;99.90;;;;;;5051406;28;20700;-59
2022/08/17 04:02:54;;;;;;;6.10;4.85;;;18.20;99.90;;;;;;5051981;28;20196;-60
2022/08/17 04:05:20;;;;;;;7.35;5.22;;;18.20;99.90;;;;;;5051885;28;20189;-60
2022/08/17 04:07:46;;;;;;;6.80;5.80;;;18.20;99.90;;;;;;5051088;28;20186;-60
2022/08/17 04:10:12;;;;;;;6.32;5.40;;;18.20;99.90;;;;;;5052160;28;20177;-60
2022/08/17 04:12:48;;;;;;;11.05;6.95;;;18.30;99.90;;;;;;5051869;28;20557;-60
2022/08/17 04:15:15;;;;;;;11.13;7.32;;;18.30;99.90;;;;;;5052126;28;20185;-58
2022/08/17 04:17:43;;;;;;;12.68;6.55;;;18.40;99.90;;;;;;5038697;28;20178;-58
2022/08/17 04:20:09;;;;;;;9.48;5.72;;;18.40;99.90;;;;;;5051376;28;20196;-58
2022/08/17 04:22:35;;;;;;;7.38;5.22;;;18.40;99.90;;;;;;5050356;28;20177;-59
2022/08/17 04:25:08;;;;;;;5.75;4.85;;;18.40;99.90;;;;;;5051162;28;20554;-58
2022/08/17 04:27:34;;;;;;;6.47;5.25;;;18.30;99.90;;;;;;5042992;28;20566;-58
2022/08/17 04:30:00;;;;;;;7.28;4.88;;;18.30;99.90;;;;;;5052001;28;20177;-58
2022/08/17 04:32:26;;;;;;;7.07;4.68;;;18.30;99.90;;;;;;5051979;28;20272;-57
2022/08/17 04:34:52;;;;;;;7.00;5.15;;;18.20;99.90;;;;;;5051331;28;20276;-57
2022/08/17 04:37:17;;;;;;;7.60;5.05;;;18.20;99.90;;;;;;5051348;28;20265;-58
2022/08/17 04:42:05;;;;;;;8.52;5.40;;;18.20;99.90;;;;;;5046557;28;20281;-58
2022/08/17 04:42:28;;;;;;;7.63;5.43;;;18.20;99.90;;;;;;5038934;28;20181;-59
2022/08/17 04:44:54;;;;;;;6.00;4.95;;;18.20;99.90;;;;;;5051719;28;20231;-58
2022/08/17 04:47:19;;;;;;;5.75;4.55;;;18.20;99.90;;;;;;5051027;28;20292;-58
2022/08/17 04:49:45;;;;;;;8.15;6.32;;;18.30;99.90;;;;;;5051693;28;20180;-57
2022/08/17 04:52:10;;;;;;;7.40;5.35;;;18.30;99.90;;;;;;5050183;28;20239;-59
2022/08/17 04:54:36;;;;;;;8.07;6.38;;;18.40;99.90;;;;;;5051407;28;20509;-59
2022/08/17 04:57:01;;;;;;;14.82;9.40;;;18.50;99.90;;;;;;5051531;28;20185;-59
2022/08/17 04:59:27;;;;;;;8.68;5.00;;;18.50;99.90;;;;;;5051465;28;20185;-59
2022/08/17 05:01:53;;;;;;;9.65;5.82;;;18.60;99.90;;;;;;5051143;28;20292;-60
2022/08/17 05:04:21;;;;;;;11.25;7.60;;;18.70;99.90;;;;;;5051891;28;20173;-60
2022/08/17 05:06:48;;;;;;;10.02;6.18;;;18.70;99.90;;;;;;5051262;28;20726;-60
2022/08/17 05:09:16;;;;;;;6.65;5.30;;;18.80;99.90;;;;;;5051208;28;20181;-59
2022/08/17 05:11:42;;;;;;;7.78;5.60;;;18.90;99.90;;;;;;5051640;28;20189;-60
2022/08/17 05:14:07;;;;;;;8.50;5.72;;;19.00;99.90;;;;;;5051224;28;20178;-59
2022/08/17 05:16:33;;;;;;;8.55;5.80;;;19.20;99.90;;;;;;5051062;28;20268;-59
2022/08/17 05:18:58;;;;;;;7.32;5.40;;;19.40;99.90;;;;;;5051214;28;20187;-60
2022/08/17 05:21:25;;;;;;;6.38;5.05;;;19.60;99.90;;;;;;5051310;28;20648;-60
2022/08/17 05:23:52;;;;;;;5.85;4.90;;;19.70;99.90;;;;;;5051313;28;20182;-60
2022/08/17 05:26:20;;;;;;;6.10;5.25;;;19.80;99.90;;;;;;5051581;28;20209;-60
2022/08/17 05:28:46;;;;;;;6.38;5.25;;;19.90;99.90;;;;;;5050923;28;20213;-60
2022/08/17 05:31:12;;;;;;;7.22;4.85;;;19.90;99.90;;;;;;5051143;28;20169;-60
2022/08/17 05:33:41;;;;;;;9.10;5.07;;;20.00;99.90;;;;;;5050730;28;20184;-60
2022/08/17 05:36:09;;;;;;;7.90;4.93;;;20.00;99.90;;;;;;5051363;28;20706;-60
2022/08/17 05:38:34;;;;;;;6.63;5.40;;;20.10;99.90;;;;;;5044461;28;20194;-60
2022/08/17 05:41:05;;;;;;;5.78;4.85;;;20.20;99.90;;;;;;5031485;28;20179;-60
2022/08/17 05:43:34;;;;;;;6.28;4.90;;;20.30;99.70;;;;;;5031334;28;20167;-60
2022/08/17 05:46:17;;;;;;;8.55;5.13;;;20.40;99.60;;;;;;5041680;28;20204;-60
2022/08/17 05:48:54;;;;;;;5.63;4.97;;;20.50;99.50;;;;;;5051393;28;20173;-60
2022/08/17 05:51:51;;;;;;;10.50;5.60;;;20.60;99.30;;;;;;5050136;28;20230;-60
2022/08/17 05:54:23;;;;;;;8.40;5.03;;;20.80;99.20;;;;;;5051284;28;20197;-60
2022/08/17 05:56:54;;;;;;;7.13;4.82;;;20.90;99.10;;;;;;5055268;28;20249;-60
2022/08/17 05:59:32;;;;;;;7.47;4.70;;;21.00;98.90;;;;;;5055083;28;20188;-60
2022/08/17 06:02:17;;;;;;;5.70;4.70;;;21.20;98.60;;;;;;5054792;28;20253;-60
2022/08/17 06:05:08;;;;;;;5.82;5.22;;;21.30;98.50;;;;;;5054934;28;20260;-60
2022/08/17 06:07:46;;;;;;;7.50;5.00;;;21.50;98.50;;;;;;5054851;28;20301;-60
2022/08/17 06:10:57;;;;;;;6.57;4.55;;;21.70;98.10;;;;;;5054893;28;20174;-60
2022/08/17 06:13:41;;;;;;;6.80;5.00;;;22.20;97.80;;;;;;5054909;28;20177;-60
2022/08/17 06:16:09;;;;;;;8.15;5.97;;;23.00;96.90;;;;;;5054407;28;20213;-61
2022/08/17 06:18:58;;;;;;;6.80;5.10;;;23.40;96.00;;;;;;5053524;28;20188;-60
2022/08/17 06:21:29;;;;;;;8.52;5.15;;;23.80;94.90;;;;;;5053480;28;20178;-60
2022/08/17 06:24:27;;;;;;;4.65;4.20;;;24.10;94.00;;;;;;5054293;28;20189;-60
2022/08/17 06:26:58;;;;;;;6.88;4.90;;;24.20;93.80;;;;;;5045052;28;20304;-60
2022/08/17 06:29:36;;;;;;;8.00;4.30;;;24.60;93.60;;;;;;5054000;28;20165;-60
2022/08/17 06:32:04;;;;;;;5.70;4.43;;;25.10;92.90;;;;;;5053991;28;20534;-60
2022/08/17 06:34:31;;;;;;;4.93;4.40;;;25.60;92.00;;;;;;5053998;28;20602;-60
2022/08/17 06:37:26;;;;;;;6.55;4.63;;;26.10;90.80;;;;;;5053431;28;20226;-60
2022/08/17 06:40:09;;;;;;;4.78;4.35;;;26.70;89.10;;;;;;5051062;28;20645;-60
2022/08/17 06:42:57;;;;;;;7.68;4.80;;;27.20;86.50;;;;;;5054307;28;20193;-60
2022/08/17 06:45:34;;;;;;;5.38;4.53;;;27.60;83.30;;;;;;5054133;28;20174;-59
2022/08/17 06:48:10;;;;;;;6.47;4.18;;;28.30;80.40;;;;;;5054017;28;20189;-59
2022/08/17 06:50:49;;;;;;;4.43;4.03;;;29.00;78.30;;;;;;5053961;28;20933;-60
2022/08/17 06:53:25;;;;;;;6.72;3.90;;;29.80;75.40;;;;;;5053984;28;20184;-59
2022/08/17 06:56:09;;;;;;;4.22;3.72;;;30.50;71.00;;;;;;5053719;28;20177;-60
2022/08/17 06:58:37;;;;;;;6.07;4.00;;;30.10;69.20;;;;;;5053905;28;20185;-60
2022/08/17 07:01:16;;;;;;;5.38;4.18;;;29.40;69.60;;;;;;5053044;28;20213;-59
2022/08/17 07:03:53;;;;;;;4.70;3.92;;;28.50;72.00;;;;;;5053970;28;20268;-59
2022/08/17 07:06:31;;;;;;;5.05;4.55;;;27.60;74.00;;;;;;5053171;28;20568;-60
2022/08/17 07:09:04;;;;;;;4.93;4.25;;;27.10;76.30;;;;;;5053070;28;20239;-61
2022/08/17 07:11:57;;;;;;;4.75;4.20;;;26.60;78.40;;;;;;5033667;28;20186;-61
2022/08/17 07:14:46;;;;;;;4.25;3.85;;;26.20;80.50;;;;;;5044472;28;20178;-60
2022/08/17 07:17:16;;;;;;;6.13;4.30;;;25.90;82.40;;;;;;5053418;28;20177;-61
2022/08/17 07:19:44;;;;;;;9.48;7.32;;;25.70;83.50;;;;;;5053665;28;20177;-60
2022/08/17 07:22:19;;;;;;;8.05;4.90;;;25.50;84.20;;;;;;5053089;28;20655;-60
2022/08/17 07:24:58;;;;;;;6.25;4.25;;;25.50;84.90;;;;;;5053342;28;20192;-60
2022/08/17 07:27:31;;;;;;;8.77;4.63;;;25.50;84.80;;;;;;5053283;28;20244;-60
2022/08/17 07:30:15;;;;;;;9.05;4.57;;;25.50;84.80;;;;;;5052815;28;20178;-60
2022/08/17 07:32:44;;;;;;;4.85;4.35;;;25.50;84.60;;;;;;5052997;28;20186;-59
2022/08/17 07:35:26;;;;;;;8.43;4.47;;;25.50;85.20;;;;;;5052808;28;20205;-59
2022/08/17 07:38:09;;;;;;;8.32;4.30;;;25.50;85.80;;;;;;5051855;28;20190;-59
2022/08/17 07:40:44;;;;;;;4.60;4.07;;;25.50;86.50;;;;;;5033100;28;20548;-59
2022/08/17 07:43:28;;;;;;;6.47;4.30;;;25.60;86.40;;;;;;5036492;28;20195;-59
2022/08/17 07:48:49;;;;;;;8.38;4.60;;;25.80;86.00;;;;;;5053150;28;20541;-58
2022/08/17 07:51:24;;;;;;;7.75;4.25;;;26.10;86.10;;;;;;5052500;28;20587;-58
2022/08/17 07:53:51;;;;;;;5.45;4.93;;;26.60;86.50;;;;;;5052784;28;20226;-59
2022/08/17 07:56:32;;;;;;;14.85;8.65;;;27.60;83.50;;;;;;5052257;28;20181;-59
2022/08/17 07:59:13;;;;;;;17.73;10.18;;;28.40;79.50;;;;;;5052636;28;20200;-59
2022/08/17 08:01:40;;;;;;;8.50;5.60;;;28.70;77.30;;;;;;5051817;28;20263;-59
2022/08/17 08:04:35;;;;;;;5.97;5.18;;;28.70;76.20;;;;;;5052488;28;20184;-59
2022/08/17 08:07:09;;;;;;;5.75;4.57;;;28.60;76.10;;;;;;5051929;28;20699;-59
2022/08/17 08:09:41;;;;;;;5.53;4.47;;;28.40;74.70;;;;;;5052295;28;20185;-58
2022/08/17 08:12:42;;;;;;;5.50;4.43;;;28.10;75.20;;;;;;5052402;28;20177;-59
2022/08/17 08:15:33;;;;;;;5.10;4.32;;;27.80;76.20;;;;;;5051492;28;20590;-58
2022/08/17 08:18:02;;;;;;;5.18;4.53;;;27.60;76.50;;;;;;5050629;28;20177;-58
2022/08/17 08:20:42;;;;;;;5.75;4.82;;;27.30;77.00;;;;;;5052073;28;20169;-58
2022/08/17 08:23:10;;;;;;;4.85;4.45;;;27.10;77.60;;;;;;5051816;28;20514;-58
2022/08/17 08:25:47;;;;;;;6.43;4.63;;;27.00;78.40;;;;;;5052177;28;20696;-58
2022/08/17 08:28:16;;;;;;;5.55;4.43;;;26.80;78.40;;;;;;5050888;28;20192;-58
2022/08/17 08:30:49;;;;;;;5.75;4.57;;;26.60;78.80;;;;;;5052321;28;20177;-59
2022/08/17 08:33:26;;;;;;;5.93;4.70;;;26.50;79.40;;;;;;5051796;28;20189;-58
2022/08/17 08:35:58;;;;;;;7.80;4.13;;;26.40;79.80;;;;;;5050880;28;20213;-59
2022/08/17 08:38:38;;;;;;;6.80;4.53;;;26.40;80.00;;;;;;5046569;28;20193;-58
2022/08/17 08:41:23;;;;;;;11.63;7.03;;;26.40;80.30;;;;;;5032011;28;20228;-59
2022/08/17 08:44:19;;;;;;;10.02;7.30;;;26.30;81.20;;;;;;5049197;28;20185;-59
2022/08/17 08:47:07;;;;;;;7.35;5.40;;;26.30;81.30;;;;;;5051591;28;20286;-59
2022/08/17 08:49:57;;;;;;;8.40;5.47;;;26.40;81.70;;;;;;5052066;28;20633;-59
2022/08/17 08:52:59;;;;;;;11.15;6.68;;;26.40;81.30;;;;;;5051569;28;20182;-59
2022/08/17 08:55:58;;;;;;;13.23;6.32;;;26.50;81.40;;;;;;5051764;28;20704;-59
2022/08/17 08:58:33;;;;;;;7.38;5.40;;;26.50;80.40;;;;;;5051428;28;20645;-58
2022/08/17 09:01:08;;;;;;;5.68;4.93;;;26.50;80.20;;;;;;5051523;28;20229;-59
2022/08/17 09:03:52;;;;;;;5.85;4.63;;;26.40;80.30;;;;;;5051546;28;20181;-59
2022/08/17 09:06:32;;;;;;;6.05;4.50;;;26.40;80.20;;;;;;5051708;28;20208;-59
2022/08/17 09:09:13;;;;;;;5.80;5.10;;;26.30;80.70;;;;;;5051328;28;20616;-59
2022/08/17 09:12:04;;;;;;;5.65;4.53;;;26.30;80.60;;;;;;5051709;28;20201;-59
2022/08/17 09:14:35;;;;;;;8.02;5.15;;;26.20;80.90;;;;;;5050971;28;20185;-59
2022/08/17 09:17:18;;;;;;;5.70;4.45;;;26.10;81.70;;;;;;5051520;28;20173;-59
2022/08/17 09:19:53;;;;;;;7.53;4.65;;;26.00;82.20;;;;;;5047155;28;20177;-59
2022/08/17 09:22:41;;;;;;;6.35;4.60;;;25.90;83.70;;;;;;5051289;28;20504;-59
2022/08/17 09:25:16;;;;;;;5.15;4.30;;;25.90;85.50;;;;;;5031423;28;20184;-59
2022/08/17 09:28:00;;;;;;;5.00;4.50;;;25.70;86.40;;;;;;5034804;28;20216;-59
2022/08/17 09:30:35;;;;;;;5.90;4.45;;;25.60;86.80;;;;;;5054616;28;20268;-59
2022/08/17 09:33:06;;;;;;;4.97;3.90;;;25.50;88.50;;;;;;5055058;28;20212;-59
2022/08/17 09:35:38;;;;;;;6.72;4.18;;;25.50;88.50;;;;;;5055538;28;20181;-59
2022/08/17 09:38:09;;;;;;;4.35;3.95;;;25.50;88.50;;;;;;5054891;28;20188;-59
2022/08/17 09:40:43;;;;;;;4.60;4.20;;;25.40;87.90;;;;;;5055366;28;20841;-60
2022/08/17 09:43:27;;;;;;;5.00;3.60;;;25.40;87.80;;;;;;5054578;28;20182;-59
2022/08/17 09:46:01;;;;;;;5.68;3.88;;;25.40;87.40;;;;;;5055081;28;20197;-59
2022/08/17 09:48:54;;;;;;;4.43;3.97;;;25.40;87.20;;;;;;5054905;28;20644;-59
2022/08/17 09:51:47;;;;;;;6.28;3.78;;;25.40;88.00;;;;;;5054798;28;20687;-58
2022/08/17 09:54:34;;;;;;;7.32;4.35;;;25.40;88.40;;;;;;5055029;28;20188;-58
2022/08/17 09:57:21;;;;;;;6.32;3.53;;;25.50;87.20;;;;;;5054641;28;20241;-58
2022/08/17 09:59:47;;;;;;;5.28;3.90;;;25.40;87.30;;;;;;5054348;28;20533;-59
2022/08/17 10:02:44;;;;;;;8.73;6.20;;;25.40;86.90;;;;;;5054366;28;20228;-58
2022/08/17 10:05:36;;;;;;;7.88;3.80;;;25.30;87.40;;;;;;5044388;28;20189;-58
2022/08/17 10:08:28;;;;;;;5.60;3.60;;;25.30;87.10;;;;;;5054505;28;20251;-58
2022/08/17 10:11:06;;;;;;;4.10;3.70;;;25.40;86.90;;;;;;5054376;28;20186;-59
2022/08/17 10:13:54;;;;;;;4.35;3.85;;;25.50;86.80;;;;;;5054231;28;20173;-58
2022/08/17 10:16:46;;;;;;;5.22;3.75;;;25.60;85.60;;;;;;5054544;28;20178;-59
2022/08/17 10:19:20;;;;;;;3.88;3.30;;;25.60;84.80;;;;;;5054376;28;20243;-59
2022/08/17 10:27:47;;;;;;;3.92;3.47;;;25.50;84.70;;;;;;5044121;28;20299;-60
2022/08/17 10:30:16;;;;;;;4.00;3.33;;;25.60;86.20;;;;;;5055615;28;20515;-59
2022/08/17 10:32:46;;;;;;;4.72;3.50;;;25.60;87.40;;;;;;5054138;28;20182;-59
2022/08/17 10:35:33;;;;;;;3.85;2.90;;;25.60;88.20;;;;;;5053969;28;20264;-60
2022/08/17 10:38:35;;;;;;;4.53;3.13;;;25.40;85.40;;;;;;5052019;28;20227;-58
2022/08/17 10:41:23;;;;;;;3.38;3.08;;;25.30;84.30;;;;;;5038594;28;20173;-59
2022/08/17 10:43:49;;;;;;;4.25;2.97;;;25.20;85.30;;;;;;5053951;28;20177;-60
2022/08/17 10:46:25;;;;;;;4.13;3.42;;;25.20;84.60;;;;;;5053808;28;20197;-60
2022/08/17 10:49:19;;;;;;;5.95;3.05;;;25.20;85.00;;;;;;5054043;28;20181;-60
2022/08/17 10:51:47;;;;;;;5.88;3.42;;;25.20;84.50;;;;;;5054009;28;20591;-60
2022/08/17 10:54:34;;;;;;;5.00;4.00;;;25.10;87.60;;;;;;5053846;28;20706;-60
2022/08/17 10:57:00;;;;;;;6.40;4.32;;;24.80;90.60;;;;;;5052489;28;20590;-60
2022/08/17 10:59:34;;;;;;;5.03;4.57;;;24.50;91.60;;;;;;5053958;28;20186;-60
2022/08/17 11:02:09;;;;;;;6.45;4.60;;;24.20;91.80;;;;;;5053618;28;20228;-60
2022/08/17 11:05:02;;;;;;;6.15;4.75;;;24.00;92.40;;;;;;5053740;28;20181;-60
2022/08/17 11:08:10;;;;;;;8.82;4.25;;;23.90;93.40;;;;;;5053578;28;20216;-59
2022/08/17 11:11:14;;;;;;;6.03;4.05;;;23.90;93.70;;;;;;5053283;28;20197;-60
2022/08/17 11:14:15;;;;;;;5.30;4.13;;;24.00;93.50;;;;;;5040973;28;20192;-60
2022/08/17 11:17:14;;;;;;;5.93;4.50;;;24.30;93.20;;;;;;5052634;28;20184;-60
2022/08/17 11:19:55;;;;;;;6.28;3.88;;;24.60;92.90;;;;;;5053548;28;20178;-60
2022/08/17 11:22:41;;;;;;;4.93;3.53;;;24.90;92.20;;;;;;5053529;28;20185;-60
2022/08/17 11:25:15;;;;;;;5.63;3.80;;;25.10;91.80;;;;;;5053141;28;20568;-60
2022/08/17 11:27:42;;;;;;;4.97;3.80;;;25.10;91.60;;;;;;5040594;28;20676;-60
2022/08/17 11:30:13;;;;;;;5.53;3.80;;;25.10;91.20;;;;;;5052916;28;20633;-60
2022/08/17 11:32:48;;;;;;;3.70;3.30;;;25.00;91.00;;;;;;5052654;28;20255;-60
2022/08/17 11:35:19;;;;;;;4.93;3.83;;;25.00;91.20;;;;;;5052897;28;20189;-60
2022/08/17 11:37:52;;;;;;;4.25;3.60;;;25.00;91.20;;;;;;5052619;28;20182;-60
2022/08/17 11:40:39;;;;;;;3.92;3.53;;;24.90;91.20;;;;;;5051866;28;20178;-61
2022/08/17 11:43:14;;;;;;;6.47;3.85;;;24.90;90.60;;;;;;5052890;28;20209;-60
2022/08/17 11:46:05;;;;;;;4.63;3.30;;;24.90;91.40;;;;;;5052723;28;20185;-58
2022/08/17 11:51:32;;;;;;;5.40;3.80;;;24.90;91.10;;;;;;5042944;28;20204;-58
2022/08/17 11:54:10;;;;;;;7.22;4.20;;;25.20;92.10;;;;;;5051598;28;20181;-58
2022/08/17 11:56:48;;;;;;;5.97;4.22;;;25.40;91.70;;;;;;5052158;28;20213;-57
2022/08/17 11:59:31;;;;;;;4.07;3.70;;;25.40;91.10;;;;;;5052032;28;20169;-58
2022/08/17 12:02:01;;;;;;;5.07;3.75;;;25.40;90.60;;;;;;5051943;28;20228;-58
2022/08/17 12:04:32;;;;;;;4.55;3.67;;;25.50;90.50;;;;;;5051827;28;20224;-58
2022/08/17 12:07:18;;;;;;;7.07;3.67;;;25.60;90.60;;;;;;5051507;28;20220;-56
2022/08/17 12:09:48;;;;;;;4.38;3.70;;;25.70;89.20;;;;;;5047923;28;20247;-58
2022/08/17 12:12:18;;;;;;;5.78;3.72;;;25.80;89.10;;;;;;5052412;28;20193;-58
2022/08/17 12:14:56;;;;;;;4.03;3.58;;;26.10;88.60;;;;;;5052267;28;20264;-58
2022/08/17 12:17:24;;;;;;;4.78;3.75;;;26.30;87.80;;;;;;5052328;28;20850;-58
2022/08/17 12:19:51;;;;;;;5.05;3.60;;;26.50;87.10;;;;;;5052228;28;20184;-58
2022/08/17 12:22:30;;;;;;;4.65;3.80;;;26.50;86.20;;;;;;5052323;28;20185;-58
2022/08/17 12:25:14;;;;;;;4.32;3.72;;;26.60;85.60;;;;;;5052246;28;20263;-58
2022/08/17 12:27:48;;;;;;;9.85;4.13;;;26.70;85.00;;;;;;5052098;28;20749;-58
2022/08/17 12:30:17;;;;;;;4.75;3.95;;;26.90;84.50;;;;;;5052197;28;20594;-58
2022/08/17 12:32:46;;;;;;;7.32;3.70;;;26.90;83.50;;;;;;5051996;28;20702;-58
2022/08/17 12:35:35;;;;;;;3.80;3.40;;;27.00;82.80;;;;;;5052021;28;20178;-58
2022/08/17 12:38:05;;;;;;;4.28;3.50;;;26.90;81.90;;;;;;5048488;28;20509;-58
2022/08/17 12:40:31;;;;;;;5.60;3.47;;;26.90;82.50;;;;;;5032111;28;20178;-58
2022/08/17 12:43:00;;;;;;;4.70;3.97;;;26.80;82.20;;;;;;5031949;28;20182;-58
2022/08/17 12:45:30;;;;;;;4.55;3.72;;;26.80;82.30;;;;;;5037862;28;20213;-58
2022/08/17 12:48:06;;;;;;;3.65;3.35;;;26.90;82.70;;;;;;5051765;28;20224;-58
2022/08/17 12:50:37;;;;;;;4.70;3.38;;;27.00;82.40;;;;;;5052040;28;20170;-58
2022/08/17 12:53:11;;;;;;;4.20;3.50;;;27.10;81.70;;;;;;5051730;28;20178;-58
2022/08/17 12:55:37;;;;;;;3.70;3.38;;;27.10;81.80;;;;;;5051870;28;20185;-58
2022/08/17 12:58:04;;;;;;;4.13;3.63;;;27.10;82.10;;;;;;5051556;28;20181;-58
2022/08/17 13:00:34;;;;;;;6.00;3.78;;;27.20;81.50;;;;;;5051651;28;20259;-58
2022/08/17 13:03:18;;;;;;;3.60;3.25;;;27.20;80.40;;;;;;5051575;28;20181;-58
2022/08/17 13:05:56;;;;;;;4.07;3.65;;;27.30;79.80;;;;;;5051563;28;20571;-57
2022/08/17 13:08:35;;;;;;;3.70;3.28;;;27.30;79.80;;;;;;5051698;28;20241;-58
2022/08/17 13:11:12;;;;;;;4.28;3.80;;;27.30;79.70;;;;;;5051628;28;20246;-58
2022/08/17 13:13:41;;;;;;;4.28;3.60;;;27.40;79.60;;;;;;5051636;28;20651;-58
2022/08/17 13:16:15;;;;;;;3.92;3.47;;;27.40;78.30;;;;;;5051479;28;20216;-59
2022/08/17 13:18:43;;;;;;;6.15;3.80;;;27.50;77.90;;;;;;5051642;28;20165;-59
2022/08/17 13:21:18;;;;;;;4.65;4.18;;;27.60;77.90;;;;;;5051536;28;20188;-59
2022/08/17 13:24:06;;;;;;;5.60;3.83;;;27.70;78.00;;;;;;5051341;28;20524;-59
2022/08/17 13:26:53;;;;;;;5.30;3.58;;;27.90;78.10;;;;;;5051503;28;20214;-59
2022/08/17 13:29:25;;;;;;;5.80;3.90;;;28.20;77.30;;;;;;5050800;28;20185;-59
2022/08/17 13:32:16;;;;;;;6.00;3.95;;;28.90;76.90;;;;;;5051447;28;20170;-60
2022/08/17 13:34:49;;;;;;;5.63;3.47;;;29.40;74.50;;;;;;5050986;28;20276;-60
2022/08/17 13:37:25;;;;;;;6.20;3.78;;;29.80;72.30;;;;;;5051423;28;20182;-58
2022/08/17 13:39:53;;;;;;;5.68;3.53;;;30.10;72.00;;;;;;5034390;28;20235;-60
2022/08/17 13:42:47;;;;;;;4.28;3.58;;;30.40;70.80;;;;;;5031523;28;20167;-60